createdAt,value
2023-01-15T00:01:38.254Z,76.12
2023-01-15T00:11:40.791Z,73.39
2023-01-15T00:21:43.142Z,74.87
2023-01-15T00:31:53.308Z,75.33
2023-01-15T00:41:56.371Z,75.52
2023-01-15T00:51:58.738Z,74.77
2023-01-15T01:02:01.202Z,74.05
2023-01-15T01:12:03.816Z,75.08
2023-01-15T01:22:06.299Z,76.17
2023-01-15T01:32:08.680Z,76.17
2023-01-15T01:42:16.164Z,73.98
2023-01-15T01:52:23.638Z,74.32
2023-01-15T02:02:26.302Z,74.27
2023-01-15T02:12:34.386Z,74.09
2023-01-15T02:22:42.928Z,73.31
2023-01-15T02:33:14.439Z,72.74
2023-01-15T02:43:18.259Z,73.53
2023-01-15T02:53:28.743Z,73.99
2023-01-15T03:03:46.899Z,74.75
2023-01-15T03:13:53.018Z,74.83
2023-01-15T03:23:56.778Z,77.10
2023-01-15T03:33:59.366Z,77.15
2023-01-15T03:44:21.552Z,77.90
2023-01-15T03:54:33.152Z,79.15
2023-01-15T04:04:36.638Z,80.99
2023-01-15T04:14:39.237Z,83.09
2023-01-15T04:24:41.700Z,84.00
2023-01-15T04:34:44.175Z,83.51
2023-01-15T04:44:46.532Z,86.63
2023-01-15T04:54:48.876Z,85.51
2023-01-15T05:04:51.472Z,83.24
2023-01-15T05:14:53.971Z,87.51
2023-01-15T05:24:56.908Z,87.76
2023-01-15T05:34:59.287Z,84.90
2023-01-15T05:45:01.635Z,86.80
2023-01-15T05:55:04.266Z,86.19
2023-01-15T06:05:07.107Z,87.06
2023-01-15T06:15:10.471Z,86.44
2023-01-15T06:25:12.921Z,87.06
2023-01-15T08:11:29.678Z,97.09
2023-01-15T08:21:32.668Z,91.66
2023-01-15T08:31:35.080Z,85.78
2023-01-15T08:41:37.532Z,84.54
2023-01-15T08:51:40.229Z,82.82
2023-01-15T09:01:44.801Z,82.00
2023-01-15T09:11:47.301Z,78.94
2023-01-15T09:21:49.764Z,77.59
2023-01-15T09:31:52.108Z,75.49
2023-01-15T09:42:25.305Z,73.49
2023-01-15T09:52:50.808Z,74.85
2023-01-15T10:03:02.081Z,73.31
2023-01-15T10:13:19.468Z,74.25
2023-01-15T10:23:38.457Z,70.85
2023-01-15T10:34:08.601Z,71.93
2023-01-15T10:44:25.110Z,74.87
2023-01-15T10:54:38.645Z,73.83
2023-01-15T11:04:41.058Z,73.10
2023-01-15T11:15:03.633Z,73.29
2023-01-15T11:25:09.237Z,74.51
2023-01-15T11:35:18.829Z,75.57
2023-01-15T11:45:42.001Z,75.02
2023-01-15T11:56:02.813Z,75.63
2023-01-15T12:06:13.419Z,78.04
2023-01-15T12:16:15.787Z,77.97
2023-01-15T12:26:24.108Z,77.24
2023-01-15T12:36:32.182Z,78.11
2023-01-15T12:46:38.775Z,80.09
2023-01-15T12:56:46.842Z,80.00
2023-01-15T13:06:56.505Z,79.16
2023-01-15T13:17:05.870Z,79.86
2023-01-15T13:27:14.288Z,76.59
2023-01-15T13:37:19.858Z,78.96
2023-01-15T13:47:26.162Z,77.52
2023-01-15T13:57:36.176Z,77.11
2023-01-15T14:07:38.731Z,76.75
2023-01-15T14:18:13.293Z,76.63
2023-01-15T14:28:24.814Z,76.24
2023-01-15T14:38:28.300Z,77.80
2023-01-15T14:48:30.811Z,79.37
2023-01-15T14:58:42.201Z,76.80
2023-01-15T15:08:46.320Z,76.00
2023-01-15T15:18:58.529Z,76.01
2023-01-15T15:29:02.259Z,76.09
2023-01-15T15:39:24.335Z,75.57
2023-01-15T15:49:26.743Z,73.07
2023-01-15T15:59:31.877Z,73.48
2023-01-15T16:09:34.338Z,71.89
2023-01-15T16:19:39.300Z,70.76
2023-01-15T16:29:49.900Z,70.87
2023-01-15T16:39:52.716Z,71.13
2023-01-15T16:50:23.914Z,71.95
2023-01-15T17:00:31.061Z,70.58
2023-01-15T17:10:33.465Z,70.66
2023-01-15T17:20:37.360Z,70.40
2023-01-15T17:30:40.005Z,69.36
2023-01-15T17:40:43.061Z,69.10
2023-01-15T17:50:45.549Z,69.71
2023-01-15T18:01:07.489Z,69.54
2023-01-15T18:11:10.920Z,69.63
2023-01-15T18:21:13.336Z,69.51
2023-01-15T18:31:15.785Z,69.23
2023-01-15T18:41:36.279Z,68.78
2023-01-15T18:51:38.769Z,67.46
2023-01-15T19:01:42.356Z,68.86
2023-01-15T19:11:44.988Z,69.37
2023-01-15T19:21:47.472Z,69.37
2023-01-15T19:31:50.860Z,69.15
2023-01-15T19:42:12.361Z,69.96
2023-01-15T19:52:33.391Z,69.51
2023-01-15T20:02:36.988Z,70.71
2023-01-15T20:12:57.774Z,67.74
2023-01-15T20:23:00.898Z,71.14
2023-01-15T20:33:03.450Z,72.13
2023-01-15T20:43:24.482Z,70.39
2023-01-15T20:53:33.845Z,70.49
2023-01-15T21:03:38.544Z,72.15
2023-01-15T21:13:45.023Z,74.01
2023-01-15T21:23:47.425Z,74.52
2023-01-15T21:40:12.099Z,77.00
2023-01-15T21:50:16.420Z,75.12
2023-01-15T22:00:20.745Z,74.84
2023-01-15T22:10:23.957Z,73.72
2023-01-15T22:20:26.431Z,72.58
2023-01-15T22:30:28.889Z,71.83
2023-01-15T22:40:31.431Z,71.15
2023-01-15T22:50:33.797Z,71.11
2023-01-15T23:00:36.209Z,69.79
2023-01-15T23:10:44.545Z,69.19
2023-01-15T23:20:46.776Z,70.70
2023-01-15T23:30:49.156Z,70.28
2023-01-15T23:40:51.940Z,71.81
2023-01-15T23:50:54.288Z,71.39
